DLH55E EBBR-EDDH
Flight info
| Callsign | DLH55E |
|---|---|
| Flight time | 1h 31m |
| Altitude | 37000 |
| Route | NIK L191 VICOT N873 ANDIK M105 RIBSO RIBSO7A |
| Aircraft | A320/M-SDE3FGHIRWY/LB1 |
Departure
| Time | 2026-05-07 18:22 |
|---|---|
| Airport | Brussels Airport (EBBR) |
Arrival
| Time | 2026-05-07 19:53 |
|---|---|
| Airport | Hamburg Helmut Schmidt Airport (EDDH) |
| Time | Latitude | Longitude | Altitude | Speed | Heading |
|---|---|---|---|---|---|
| 2026-05-07 17:22 | 50.90345 | 4.48370 | 118 ft | 0 kts | 155° |
| 2026-05-07 18:06 | 50.90348 | 4.48367 | 116 ft | 3 kts | 155° |
| 2026-05-07 18:06 | 50.90373 | 4.48349 | 117 ft | 4 kts | 155° |
| 2026-05-07 18:06 | 50.90398 | 4.48331 | 116 ft | 4 kts | 155° |
| 2026-05-07 18:06 | 50.90418 | 4.48315 | 116 ft | 4 kts | 130° |
| 2026-05-07 18:07 | 50.90422 | 4.48285 | 117 ft | 4 kts | 59° |
| 2026-05-07 18:07 | 50.90407 | 4.48251 | 116 ft | 3 kts | 62° |
| 2026-05-07 18:07 | 50.90405 | 4.48245 | 116 ft | 0 kts | 65° |
| 2026-05-07 18:11 | 50.90415 | 4.48278 | 119 ft | 8 kts | 65° |
| 2026-05-07 18:12 | 50.90436 | 4.48350 | 117 ft | 6 kts | 65° |
| 2026-05-07 18:12 | 50.90452 | 4.48407 | 121 ft | 5 kts | 65° |
| 2026-05-07 18:12 | 50.90464 | 4.48450 | 120 ft | 4 kts | 65° |
| 2026-05-07 18:12 | 50.90474 | 4.48484 | 120 ft | 5 kts | 65° |
| 2026-05-07 18:13 | 50.90501 | 4.48577 | 118 ft | 13 kts | 65° |
| 2026-05-07 18:13 | 50.90541 | 4.48715 | 119 ft | 15 kts | 65° |
| 2026-05-07 18:13 | 50.90586 | 4.48870 | 118 ft | 16 kts | 65° |
| 2026-05-07 18:13 | 50.90634 | 4.49040 | 116 ft | 18 kts | 65° |
| 2026-05-07 18:14 | 50.90687 | 4.49221 | 119 ft | 18 kts | 65° |
| 2026-05-07 18:14 | 50.90742 | 4.49410 | 120 ft | 19 kts | 65° |
| 2026-05-07 18:14 | 50.90772 | 4.49515 | 121 ft | 5 kts | 65° |
| 2026-05-07 18:14 | 50.90785 | 4.49559 | 119 ft | 4 kts | 65° |
| 2026-05-07 18:15 | 50.90802 | 4.49613 | 122 ft | 6 kts | 57° |
| 2026-05-07 18:15 | 50.90831 | 4.49645 | 121 ft | 5 kts | 22° |
| 2026-05-07 18:15 | 50.90871 | 4.49657 | 121 ft | 10 kts | 11° |
| 2026-05-07 18:15 | 50.90916 | 4.49736 | 122 ft | 10 kts | 66° |
| 2026-05-07 18:16 | 50.90942 | 4.49811 | 120 ft | 2 kts | 38° |
| 2026-05-07 18:16 | 50.90956 | 4.49828 | 122 ft | 3 kts | 39° |
| 2026-05-07 18:16 | 50.90964 | 4.49839 | 121 ft | 1 kts | 39° |
| 2026-05-07 18:16 | 50.90993 | 4.49876 | 121 ft | 9 kts | 39° |
| 2026-05-07 18:17 | 50.91044 | 4.49916 | 120 ft | 0 kts | 23° |
| 2026-05-07 18:20 | 50.91071 | 4.49935 | 118 ft | 7 kts | 23° |
| 2026-05-07 18:21 | 50.91110 | 4.49944 | 118 ft | 5 kts | 343° |
| 2026-05-07 18:21 | 50.91134 | 4.49887 | 119 ft | 10 kts | 276° |
| 2026-05-07 18:21 | 50.91110 | 4.49787 | 117 ft | 9 kts | 244° |
| 2026-05-07 18:21 | 50.91034 | 4.49526 | 119 ft | 59 kts | 245° |
| 2026-05-07 18:22 | 50.90764 | 4.48585 | 118 ft | 126 kts | 245° |
| 2026-05-07 18:22 | 50.90634 | 4.48128 | 119 ft | 144 kts | 246° |
| 2026-05-07 18:22 | 50.89866 | 4.45366 | 782 ft | 173 kts | 248° |
| 2026-05-07 18:22 | 50.89569 | 4.43512 | 1402 ft | 180 kts | 276° |
| 2026-05-07 18:23 | 50.90170 | 4.41721 | 1737 ft | 192 kts | 323° |
| 2026-05-07 18:23 | 50.91370 | 4.40713 | 2093 ft | 207 kts | 335° |
| 2026-05-07 18:23 | 50.92758 | 4.39649 | 2567 ft | 233 kts | 334° |
| 2026-05-07 18:23 | 50.94275 | 4.38431 | 3171 ft | 254 kts | 333° |
| 2026-05-07 18:24 | 50.95861 | 4.37098 | 3955 ft | 262 kts | 332° |
| 2026-05-07 18:24 | 50.97497 | 4.35673 | 4874 ft | 266 kts | 332° |
| 2026-05-07 18:24 | 50.99106 | 4.34241 | 5737 ft | 269 kts | 330° |
| 2026-05-07 18:24 | 51.00751 | 4.32759 | 6579 ft | 275 kts | 330° |
| 2026-05-07 18:25 | 51.02425 | 4.31242 | 6928 ft | 278 kts | 329° |
| 2026-05-07 18:25 | 51.04101 | 4.29719 | 7057 ft | 278 kts | 329° |
| 2026-05-07 18:25 | 51.05793 | 4.28176 | 7444 ft | 282 kts | 329° |
| 2026-05-07 18:25 | 51.07477 | 4.26642 | 8371 ft | 282 kts | 329° |
| 2026-05-07 18:26 | 51.09205 | 4.25068 | 9259 ft | 285 kts | 329° |
| 2026-05-07 18:26 | 51.10926 | 4.23495 | 10074 ft | 288 kts | 329° |
| 2026-05-07 18:26 | 51.12703 | 4.21867 | 10499 ft | 305 kts | 329° |
| 2026-05-07 18:26 | 51.14621 | 4.20110 | 10717 ft | 329 kts | 329° |
| 2026-05-07 18:27 | 51.16626 | 4.18225 | 11090 ft | 340 kts | 325° |
| 2026-05-07 18:27 | 51.17908 | 4.16742 | 11512 ft | 344 kts | 322° |
| 2026-05-07 18:27 | 51.20499 | 4.13684 | 12478 ft | 349 kts | 322° |
| 2026-05-07 18:27 | 51.21796 | 4.12153 | 12950 ft | 352 kts | 322° |
| 2026-05-07 18:28 | 51.23798 | 4.09792 | 13647 ft | 356 kts | 322° |
| 2026-05-07 18:28 | 51.25849 | 4.07627 | 13989 ft | 360 kts | 331° |
| 2026-05-07 18:28 | 51.28166 | 4.06123 | 14069 ft | 361 kts | 343° |
| 2026-05-07 18:28 | 51.30638 | 4.05420 | 14085 ft | 362 kts | 355° |
| 2026-05-07 18:29 | 51.33151 | 4.05354 | 14080 ft | 362 kts | 359° |
| 2026-05-07 18:29 | 51.35682 | 4.05321 | 14085 ft | 362 kts | 358° |
| 2026-05-07 18:29 | 51.38195 | 4.05273 | 14080 ft | 362 kts | 358° |
| 2026-05-07 18:29 | 51.40725 | 4.05219 | 14099 ft | 363 kts | 358° |
| 2026-05-07 18:30 | 51.43272 | 4.05161 | 14661 ft | 367 kts | 358° |
| 2026-05-07 18:30 | 51.45821 | 4.05131 | 15326 ft | 369 kts | 1° |
| 2026-05-07 18:30 | 51.48394 | 4.05675 | 15948 ft | 373 kts | 12° |
| 2026-05-07 18:30 | 51.50859 | 4.06998 | 16477 ft | 373 kts | 23° |
| 2026-05-07 18:31 | 51.53238 | 4.08767 | 17120 ft | 379 kts | 24° |
| 2026-05-07 18:31 | 51.55694 | 4.10601 | 17936 ft | 384 kts | 24° |
| 2026-05-07 18:31 | 51.58087 | 4.12385 | 18673 ft | 389 kts | 24° |
| 2026-05-07 18:31 | 51.60555 | 4.14221 | 19342 ft | 393 kts | 24° |
| 2026-05-07 18:32 | 51.63040 | 4.16070 | 20000 ft | 397 kts | 24° |
| 2026-05-07 18:32 | 51.65573 | 4.17953 | 20650 ft | 401 kts | 24° |
| 2026-05-07 18:32 | 51.68117 | 4.19842 | 21270 ft | 405 kts | 24° |
| 2026-05-07 18:32 | 51.70657 | 4.21733 | 21853 ft | 409 kts | 24° |
| 2026-05-07 18:33 | 51.73249 | 4.23668 | 22405 ft | 413 kts | 23° |
| 2026-05-07 18:33 | 51.75901 | 4.25652 | 22948 ft | 416 kts | 24° |
| 2026-05-07 18:33 | 51.78503 | 4.27606 | 23440 ft | 420 kts | 24° |
| 2026-05-07 18:33 | 51.81158 | 4.29602 | 23824 ft | 421 kts | 24° |
| 2026-05-07 18:34 | 51.83829 | 4.31608 | 24205 ft | 423 kts | 24° |
| 2026-05-07 18:34 | 51.86505 | 4.33621 | 24528 ft | 427 kts | 24° |
| 2026-05-07 18:34 | 51.88871 | 4.35406 | 24861 ft | 429 kts | 24° |
| 2026-05-07 18:34 | 51.91691 | 4.37541 | 25239 ft | 432 kts | 24° |
| 2026-05-07 18:35 | 51.94282 | 4.39509 | 25562 ft | 434 kts | 24° |
| 2026-05-07 18:35 | 51.97028 | 4.41590 | 25922 ft | 436 kts | 24° |
| 2026-05-07 18:35 | 51.98677 | 4.42841 | 26150 ft | 437 kts | 24° |
| 2026-05-07 18:35 | 52.01436 | 4.44933 | 26502 ft | 439 kts | 24° |
| 2026-05-07 18:36 | 52.04217 | 4.47041 | 26840 ft | 441 kts | 24° |
| 2026-05-07 18:36 | 52.06967 | 4.49269 | 27165 ft | 444 kts | 31° |
| 2026-05-07 18:36 | 52.09406 | 4.52499 | 27474 ft | 448 kts | 47° |
| 2026-05-07 18:36 | 52.11153 | 4.56368 | 27745 ft | 450 kts | 57° |
| 2026-05-07 18:37 | 52.12861 | 4.60709 | 28058 ft | 453 kts | 57° |
| 2026-05-07 18:37 | 52.14545 | 4.65042 | 28363 ft | 455 kts | 58° |
| 2026-05-07 18:37 | 52.16233 | 4.69413 | 28655 ft | 457 kts | 58° |
| 2026-05-07 18:37 | 52.17897 | 4.73731 | 28934 ft | 459 kts | 58° |
| 2026-05-07 18:38 | 52.19596 | 4.78127 | 29191 ft | 460 kts | 58° |
| 2026-05-07 18:38 | 52.21309 | 4.82550 | 29488 ft | 461 kts | 58° |
| 2026-05-07 18:38 | 52.22966 | 4.86969 | 30316 ft | 444 kts | 61° |
| 2026-05-07 18:38 | 52.24469 | 4.91265 | 31041 ft | 439 kts | 59° |
| 2026-05-07 18:39 | 52.26102 | 4.95557 | 31152 ft | 445 kts | 57° |
| 2026-05-07 18:39 | 52.27804 | 4.99807 | 31291 ft | 450 kts | 57° |
| 2026-05-07 18:39 | 52.29535 | 5.04075 | 31420 ft | 454 kts | 57° |
| 2026-05-07 18:39 | 52.31281 | 5.08420 | 31598 ft | 457 kts | 57° |
| 2026-05-07 18:40 | 52.32996 | 5.12777 | 31998 ft | 455 kts | 58° |
| 2026-05-07 18:40 | 52.34654 | 5.17080 | 32385 ft | 452 kts | 58° |
| 2026-05-07 18:40 | 52.36332 | 5.21506 | 32784 ft | 450 kts | 58° |
| 2026-05-07 18:40 | 52.37971 | 5.25859 | 33184 ft | 448 kts | 59° |
| 2026-05-07 18:41 | 52.39596 | 5.30180 | 33591 ft | 446 kts | 59° |
| 2026-05-07 18:41 | 52.41223 | 5.34504 | 34022 ft | 443 kts | 59° |
| 2026-05-07 18:41 | 52.42728 | 5.38490 | 34358 ft | 441 kts | 59° |
| 2026-05-07 18:41 | 52.44366 | 5.42818 | 34715 ft | 438 kts | 59° |
| 2026-05-07 18:42 | 52.45948 | 5.46998 | 35062 ft | 435 kts | 59° |
| 2026-05-07 18:42 | 52.47557 | 5.51253 | 35430 ft | 431 kts | 59° |
| 2026-05-07 18:42 | 52.49107 | 5.55361 | 35791 ft | 427 kts | 59° |
| 2026-05-07 18:42 | 52.50633 | 5.59410 | 36153 ft | 423 kts | 59° |
| 2026-05-07 18:43 | 52.52151 | 5.63455 | 36527 ft | 419 kts | 59° |
| 2026-05-07 18:43 | 52.53677 | 5.67536 | 36805 ft | 418 kts | 59° |
| 2026-05-07 18:43 | 52.55194 | 5.71603 | 36946 ft | 419 kts | 59° |
| 2026-05-07 18:43 | 52.56723 | 5.75699 | 37076 ft | 422 kts | 59° |
| 2026-05-07 18:44 | 52.58223 | 5.79718 | 37098 ft | 426 kts | 59° |
| 2026-05-07 18:44 | 52.61346 | 5.88108 | 37094 ft | 436 kts | 59° |
| 2026-05-07 18:45 | 52.64547 | 5.96725 | 37100 ft | 445 kts | 59° |
| 2026-05-07 18:45 | 52.67793 | 6.05519 | 37097 ft | 453 kts | 59° |
| 2026-05-07 18:46 | 52.71048 | 6.14358 | 37105 ft | 447 kts | 59° |
| 2026-05-07 18:46 | 52.74259 | 6.23118 | 37103 ft | 444 kts | 59° |
| 2026-05-07 18:47 | 52.77444 | 6.31847 | 37105 ft | 444 kts | 59° |
| 2026-05-07 18:47 | 52.80637 | 6.40588 | 37109 ft | 444 kts | 59° |
| 2026-05-07 18:48 | 52.83816 | 6.49343 | 37114 ft | 443 kts | 59° |
| 2026-05-07 18:48 | 52.85391 | 6.53704 | 37260 ft | 439 kts | 59° |
| 2026-05-07 18:48 | 52.86967 | 6.58048 | 37209 ft | 442 kts | 59° |
| 2026-05-07 18:48 | 52.88545 | 6.62413 | 37094 ft | 441 kts | 59° |
| 2026-05-07 18:49 | 52.90114 | 6.66772 | 37113 ft | 442 kts | 59° |
| 2026-05-07 18:49 | 52.93257 | 6.75547 | 37112 ft | 442 kts | 60° |
| 2026-05-07 18:50 | 52.96385 | 6.84272 | 37115 ft | 442 kts | 59° |
| 2026-05-07 18:50 | 52.99523 | 6.93055 | 37117 ft | 443 kts | 60° |
| 2026-05-07 18:50 | 53.01099 | 6.97487 | 36989 ft | 451 kts | 60° |
| 2026-05-07 18:51 | 53.02703 | 7.02010 | 36732 ft | 459 kts | 60° |
| 2026-05-07 18:51 | 53.04330 | 7.06606 | 36475 ft | 461 kts | 60° |
| 2026-05-07 18:51 | 53.05950 | 7.11194 | 36223 ft | 461 kts | 60° |
| 2026-05-07 18:51 | 53.07571 | 7.15793 | 35966 ft | 461 kts | 60° |
| 2026-05-07 18:52 | 53.09190 | 7.20394 | 35718 ft | 463 kts | 60° |
| 2026-05-07 18:52 | 53.10815 | 7.25006 | 35468 ft | 460 kts | 60° |
| 2026-05-07 18:52 | 53.12434 | 7.29598 | 35223 ft | 458 kts | 60° |
| 2026-05-07 18:52 | 53.14039 | 7.34164 | 34982 ft | 458 kts | 60° |
| 2026-05-07 18:53 | 53.15643 | 7.38743 | 34737 ft | 456 kts | 60° |
| 2026-05-07 18:53 | 53.17238 | 7.43312 | 34505 ft | 455 kts | 60° |
| 2026-05-07 18:53 | 53.18821 | 7.47856 | 34276 ft | 449 kts | 61° |
| 2026-05-07 18:53 | 53.20369 | 7.52304 | 34014 ft | 437 kts | 61° |
| 2026-05-07 18:54 | 53.21880 | 7.56637 | 33726 ft | 427 kts | 60° |
| 2026-05-07 18:54 | 53.23350 | 7.60865 | 33444 ft | 417 kts | 61° |
| 2026-05-07 18:54 | 53.24794 | 7.65038 | 33171 ft | 412 kts | 60° |
| 2026-05-07 18:54 | 53.26216 | 7.69164 | 32898 ft | 409 kts | 60° |
| 2026-05-07 18:55 | 53.27636 | 7.73284 | 32624 ft | 409 kts | 60° |
| 2026-05-07 18:55 | 53.29053 | 7.77404 | 32361 ft | 409 kts | 60° |
| 2026-05-07 18:55 | 53.30466 | 7.81520 | 32092 ft | 407 kts | 60° |
| 2026-05-07 18:55 | 53.31874 | 7.85620 | 31832 ft | 406 kts | 60° |
| 2026-05-07 18:56 | 53.33277 | 7.89714 | 31573 ft | 404 kts | 60° |
| 2026-05-07 18:56 | 53.34670 | 7.93783 | 31319 ft | 403 kts | 60° |
| 2026-05-07 18:56 | 53.36064 | 7.97861 | 30851 ft | 403 kts | 60° |
| 2026-05-07 18:56 | 53.37494 | 8.02049 | 30074 ft | 409 kts | 60° |
| 2026-05-07 18:57 | 53.38868 | 8.06085 | 29722 ft | 401 kts | 60° |
| 2026-05-07 18:57 | 53.40240 | 8.10124 | 29255 ft | 397 kts | 60° |
| 2026-05-07 18:57 | 53.41601 | 8.14136 | 28773 ft | 394 kts | 60° |
| 2026-05-07 18:57 | 53.42951 | 8.18112 | 28302 ft | 391 kts | 60° |
| 2026-05-07 18:58 | 53.44289 | 8.22058 | 27833 ft | 388 kts | 60° |
| 2026-05-07 18:58 | 53.45597 | 8.25932 | 27386 ft | 385 kts | 60° |
| 2026-05-07 18:58 | 53.46912 | 8.29839 | 26960 ft | 381 kts | 60° |
| 2026-05-07 18:58 | 53.48227 | 8.33751 | 26523 ft | 378 kts | 60° |
| 2026-05-07 18:59 | 53.49506 | 8.37555 | 25909 ft | 381 kts | 60° |
| 2026-05-07 18:59 | 53.50816 | 8.41449 | 25291 ft | 383 kts | 60° |
| 2026-05-07 18:59 | 53.52134 | 8.45370 | 24677 ft | 386 kts | 60° |
| 2026-05-07 18:59 | 53.53453 | 8.49303 | 24087 ft | 388 kts | 60° |
| 2026-05-07 19:00 | 53.54779 | 8.53279 | 23454 ft | 389 kts | 60° |
| 2026-05-07 19:00 | 53.56101 | 8.57254 | 22756 ft | 391 kts | 60° |
| 2026-05-07 19:00 | 53.57434 | 8.61265 | 22079 ft | 393 kts | 60° |
| 2026-05-07 19:00 | 53.58761 | 8.65254 | 21427 ft | 395 kts | 60° |
| 2026-05-07 19:01 | 53.60115 | 8.69330 | 20774 ft | 396 kts | 60° |
| 2026-05-07 19:01 | 53.61456 | 8.73376 | 20137 ft | 397 kts | 60° |
| 2026-05-07 19:01 | 53.62799 | 8.77445 | 19508 ft | 397 kts | 60° |
| 2026-05-07 19:01 | 53.64141 | 8.81514 | 18909 ft | 397 kts | 60° |
| 2026-05-07 19:02 | 53.65487 | 8.85590 | 18301 ft | 398 kts | 60° |
| 2026-05-07 19:02 | 53.66816 | 8.89627 | 17628 ft | 397 kts | 60° |
| 2026-05-07 19:02 | 53.68167 | 8.93742 | 16952 ft | 397 kts | 60° |
| 2026-05-07 19:02 | 53.69488 | 8.97772 | 16734 ft | 384 kts | 61° |
| 2026-05-07 19:03 | 53.70779 | 9.01714 | 16077 ft | 385 kts | 60° |
| 2026-05-07 19:03 | 53.72078 | 9.05689 | 15444 ft | 386 kts | 61° |
| 2026-05-07 19:03 | 53.73356 | 9.09602 | 14823 ft | 386 kts | 61° |
| 2026-05-07 19:03 | 53.74649 | 9.13564 | 14217 ft | 385 kts | 60° |
| 2026-05-07 19:04 | 53.75942 | 9.17526 | 13658 ft | 383 kts | 61° |
| 2026-05-07 19:04 | 53.77199 | 9.21405 | 13511 ft | 368 kts | 61° |
| 2026-05-07 19:04 | 53.78384 | 9.25075 | 13365 ft | 342 kts | 61° |
| 2026-05-07 19:04 | 53.79418 | 9.28523 | 13197 ft | 319 kts | 69° |
| 2026-05-07 19:05 | 53.79928 | 9.32102 | 12701 ft | 308 kts | 85° |
| 2026-05-07 19:05 | 53.79834 | 9.35672 | 12152 ft | 301 kts | 102° |
| 2026-05-07 19:05 | 53.79202 | 9.38931 | 12011 ft | 288 kts | 116° |
| 2026-05-07 19:05 | 53.78181 | 9.41774 | 11888 ft | 278 kts | 124° |
| 2026-05-07 19:06 | 53.77047 | 9.44354 | 11753 ft | 269 kts | 136° |
| 2026-05-07 19:06 | 53.73771 | 9.46603 | 11291 ft | 257 kts | 183° |
| 2026-05-07 19:06 | 53.72054 | 9.45878 | 11125 ft | 257 kts | 207° |
| 2026-05-07 19:07 | 53.70545 | 9.44260 | 11124 ft | 258 kts | 210° |
| 2026-05-07 19:07 | 53.68839 | 9.43431 | 11117 ft | 258 kts | 182° |
| 2026-05-07 19:07 | 53.67052 | 9.43675 | 10863 ft | 258 kts | 169° |
| 2026-05-07 19:07 | 53.65311 | 9.44367 | 10609 ft | 256 kts | 164° |
| 2026-05-07 19:08 | 53.64191 | 9.44952 | 10660 ft | 247 kts | 159° |
| 2026-05-07 19:08 | 53.62531 | 9.45934 | 10959 ft | 258 kts | 162° |
| 2026-05-07 19:08 | 53.60799 | 9.46753 | 10723 ft | 258 kts | 165° |
| 2026-05-07 19:08 | 53.59060 | 9.47469 | 10485 ft | 256 kts | 166° |
| 2026-05-07 19:09 | 53.57326 | 9.48145 | 10235 ft | 255 kts | 167° |
| 2026-05-07 19:09 | 53.55573 | 9.48514 | 9982 ft | 254 kts | 186° |
| 2026-05-07 19:09 | 53.53935 | 9.47505 | 9716 ft | 253 kts | 216° |
| 2026-05-07 19:09 | 53.52817 | 9.45257 | 9445 ft | 254 kts | 247° |
| 2026-05-07 19:10 | 53.52518 | 9.42371 | 9175 ft | 252 kts | 277° |
| 2026-05-07 19:10 | 53.53116 | 9.39652 | 8909 ft | 250 kts | 308° |
| 2026-05-07 19:10 | 53.54441 | 9.37836 | 8645 ft | 246 kts | 339° |
| 2026-05-07 19:10 | 53.56103 | 9.37351 | 8387 ft | 243 kts | 2° |
| 2026-05-07 19:11 | 53.57710 | 9.38045 | 8126 ft | 240 kts | 32° |
| 2026-05-07 19:11 | 53.58848 | 9.40028 | 7868 ft | 238 kts | 63° |
| 2026-05-07 19:11 | 53.59184 | 9.42711 | 7602 ft | 238 kts | 95° |
| 2026-05-07 19:11 | 53.58713 | 9.45374 | 7349 ft | 240 kts | 114° |
| 2026-05-07 19:12 | 53.57741 | 9.47617 | 7096 ft | 240 kts | 141° |
| 2026-05-07 19:12 | 53.56223 | 9.48751 | 6844 ft | 241 kts | 168° |
| 2026-05-07 19:12 | 53.54558 | 9.49112 | 6610 ft | 242 kts | 173° |
| 2026-05-07 19:12 | 53.52878 | 9.49343 | 6352 ft | 241 kts | 174° |
| 2026-05-07 19:13 | 53.51214 | 9.49551 | 6084 ft | 240 kts | 174° |
| 2026-05-07 19:13 | 53.49548 | 9.49748 | 5821 ft | 238 kts | 174° |
| 2026-05-07 19:13 | 53.47909 | 9.49999 | 5555 ft | 235 kts | 165° |
| 2026-05-07 19:13 | 53.46448 | 9.51093 | 5304 ft | 230 kts | 143° |
| 2026-05-07 19:14 | 53.45283 | 9.52910 | 5047 ft | 229 kts | 126° |
| 2026-05-07 19:14 | 53.44526 | 9.55204 | 4788 ft | 224 kts | 108° |
| 2026-05-07 19:14 | 53.44227 | 9.57741 | 4500 ft | 221 kts | 91° |
| 2026-05-07 19:14 | 53.44402 | 9.60231 | 4364 ft | 211 kts | 75° |
| 2026-05-07 19:15 | 53.44977 | 9.62441 | 4222 ft | 203 kts | 59° |
| 2026-05-07 19:15 | 53.45830 | 9.64266 | 4090 ft | 195 kts | 52° |
| 2026-05-07 19:15 | 53.46704 | 9.66008 | 3837 ft | 194 kts | 52° |
| 2026-05-07 19:15 | 53.47549 | 9.67695 | 3717 ft | 180 kts | 52° |
| 2026-05-07 19:16 | 53.48320 | 9.69234 | 3469 ft | 169 kts | 52° |
| 2026-05-07 19:16 | 53.49115 | 9.70830 | 3044 ft | 194 kts | 52° |
| 2026-05-07 19:16 | 53.50026 | 9.72655 | 3019 ft | 215 kts | 52° |
| 2026-05-07 19:16 | 53.51011 | 9.74624 | 3021 ft | 220 kts | 52° |
| 2026-05-07 19:17 | 53.52001 | 9.76606 | 3019 ft | 222 kts | 52° |
| 2026-05-07 19:17 | 53.52990 | 9.78586 | 2827 ft | 217 kts | 52° |
| 2026-05-07 19:17 | 53.53930 | 9.80472 | 2569 ft | 205 kts | 52° |
| 2026-05-07 19:17 | 53.54821 | 9.82261 | 2294 ft | 194 kts | 52° |
| 2026-05-07 19:18 | 53.55639 | 9.83902 | 2079 ft | 177 kts | 52° |
| 2026-05-07 19:18 | 53.56407 | 9.85448 | 1836 ft | 165 kts | 52° |
| 2026-05-07 19:18 | 53.57108 | 9.86856 | 1603 ft | 147 kts | 52° |
| 2026-05-07 19:18 | 53.57743 | 9.88135 | 1402 ft | 138 kts | 52° |
| 2026-05-07 19:19 | 53.58352 | 9.89364 | 1215 ft | 136 kts | 52° |
| 2026-05-07 19:19 | 53.58964 | 9.90555 | 1037 ft | 132 kts | 50° |
| 2026-05-07 19:19 | 53.59553 | 9.91723 | 843 ft | 132 kts | 53° |
| 2026-05-07 19:19 | 53.60117 | 9.92934 | 658 ft | 132 kts | 52° |
| 2026-05-07 19:20 | 53.60665 | 9.94050 | 474 ft | 132 kts | 50° |
| 2026-05-07 19:20 | 53.61272 | 9.95241 | 305 ft | 133 kts | 50° |
| 2026-05-07 19:20 | 53.61858 | 9.96445 | 126 ft | 132 kts | 50° |
| 2026-05-07 19:20 | 53.62455 | 9.97643 | 102 ft | 132 kts | 50° |
| 2026-05-07 19:21 | 53.63082 | 9.98879 | 355 ft | 152 kts | 50° |
| 2026-05-07 19:21 | 53.63886 | 10.00440 | 846 ft | 186 kts | 49° |
| 2026-05-07 19:21 | 53.64797 | 10.02205 | 1355 ft | 216 kts | 50° |
| 2026-05-07 19:21 | 53.65783 | 10.04023 | 2459 ft | 208 kts | 49° |
| 2026-05-07 19:22 | 53.66778 | 10.05838 | 3238 ft | 213 kts | 50° |
| 2026-05-07 19:22 | 53.67805 | 10.07696 | 3890 ft | 220 kts | 49° |
| 2026-05-07 19:22 | 53.68846 | 10.09593 | 4013 ft | 219 kts | 49° |
| 2026-05-07 19:22 | 53.69882 | 10.11478 | 4037 ft | 219 kts | 49° |
| 2026-05-07 19:23 | 53.70915 | 10.13361 | 4035 ft | 219 kts | 49° |
| 2026-05-07 19:23 | 53.71945 | 10.15245 | 4035 ft | 219 kts | 50° |
| 2026-05-07 19:23 | 53.72979 | 10.17134 | 4036 ft | 219 kts | 50° |
| 2026-05-07 19:23 | 53.74009 | 10.19010 | 4185 ft | 218 kts | 49° |
| 2026-05-07 19:24 | 53.75159 | 10.20681 | 4446 ft | 222 kts | 27° |
| 2026-05-07 19:24 | 53.76672 | 10.21281 | 4714 ft | 227 kts | 7° |
| 2026-05-07 19:24 | 53.78256 | 10.21444 | 4947 ft | 229 kts | 5° |
| 2026-05-07 19:24 | 53.79850 | 10.21545 | 4998 ft | 229 kts | 4° |
| 2026-05-07 19:25 | 53.81435 | 10.21640 | 4998 ft | 228 kts | 5° |
| 2026-05-07 19:25 | 53.83021 | 10.21733 | 5003 ft | 227 kts | 4° |
| 2026-05-07 19:25 | 53.84599 | 10.21824 | 5005 ft | 227 kts | 4° |
| 2026-05-07 19:25 | 53.86157 | 10.21667 | 5002 ft | 230 kts | 345° |
| 2026-05-07 19:26 | 53.87511 | 10.20199 | 5008 ft | 234 kts | 310° |
| 2026-05-07 19:26 | 53.88191 | 10.17708 | 5006 ft | 236 kts | 277° |
| 2026-05-07 19:26 | 53.88210 | 10.14921 | 5012 ft | 237 kts | 266° |
| 2026-05-07 19:26 | 53.88085 | 10.12138 | 5007 ft | 237 kts | 264° |
| 2026-05-07 19:27 | 53.87941 | 10.09357 | 5005 ft | 237 kts | 264° |
| 2026-05-07 19:27 | 53.87794 | 10.06573 | 5006 ft | 237 kts | 264° |
| 2026-05-07 19:27 | 53.87648 | 10.03793 | 5005 ft | 237 kts | 264° |
| 2026-05-07 19:27 | 53.87502 | 10.01022 | 5005 ft | 237 kts | 264° |
| 2026-05-07 19:28 | 53.87353 | 9.98202 | 5007 ft | 242 kts | 264° |
| 2026-05-07 19:28 | 53.87202 | 9.95344 | 5009 ft | 243 kts | 264° |
| 2026-05-07 19:28 | 53.87051 | 9.92482 | 5008 ft | 244 kts | 264° |
| 2026-05-07 19:28 | 53.86899 | 9.89619 | 5004 ft | 244 kts | 264° |
| 2026-05-07 19:29 | 53.86748 | 9.86762 | 5002 ft | 242 kts | 264° |
| 2026-05-07 19:29 | 53.86592 | 9.83834 | 5021 ft | 261 kts | 264° |
| 2026-05-07 19:29 | 53.86433 | 9.80840 | 4993 ft | 248 kts | 264° |
| 2026-05-07 19:29 | 53.86281 | 9.77958 | 5000 ft | 245 kts | 264° |
| 2026-05-07 19:30 | 53.86126 | 9.75091 | 5001 ft | 244 kts | 264° |
| 2026-05-07 19:30 | 53.85970 | 9.72223 | 5001 ft | 244 kts | 264° |
| 2026-05-07 19:30 | 53.85813 | 9.69359 | 5004 ft | 244 kts | 264° |
| 2026-05-07 19:30 | 53.85659 | 9.66510 | 5010 ft | 244 kts | 264° |
| 2026-05-07 19:31 | 53.85507 | 9.63659 | 5003 ft | 243 kts | 264° |
| 2026-05-07 19:31 | 53.85367 | 9.60991 | 5000 ft | 243 kts | 264° |
| 2026-05-07 19:31 | 53.85215 | 9.58130 | 4998 ft | 243 kts | 264° |
| 2026-05-07 19:31 | 53.85063 | 9.55271 | 4997 ft | 244 kts | 264° |
| 2026-05-07 19:32 | 53.84914 | 9.52409 | 4994 ft | 245 kts | 264° |
| 2026-05-07 19:32 | 53.84763 | 9.49548 | 4994 ft | 244 kts | 264° |
| 2026-05-07 19:32 | 53.84611 | 9.46685 | 4995 ft | 243 kts | 264° |
| 2026-05-07 19:32 | 53.84457 | 9.43830 | 4988 ft | 244 kts | 264° |
| 2026-05-07 19:33 | 53.84294 | 9.40980 | 4993 ft | 242 kts | 264° |
| 2026-05-07 19:33 | 53.83923 | 9.38225 | 4990 ft | 241 kts | 241° |
| 2026-05-07 19:33 | 53.82816 | 9.36159 | 4995 ft | 238 kts | 208° |
| 2026-05-07 19:33 | 53.81260 | 9.35409 | 4997 ft | 233 kts | 176° |
| 2026-05-07 19:34 | 53.79730 | 9.36146 | 4999 ft | 230 kts | 149° |
| 2026-05-07 19:34 | 53.78367 | 9.37572 | 4996 ft | 230 kts | 145° |
| 2026-05-07 19:34 | 53.77037 | 9.39074 | 4992 ft | 229 kts | 144° |
| 2026-05-07 19:34 | 53.75712 | 9.40566 | 4993 ft | 229 kts | 144° |
| 2026-05-07 19:35 | 53.74384 | 9.42068 | 4994 ft | 230 kts | 144° |
| 2026-05-07 19:35 | 53.73069 | 9.43568 | 4995 ft | 228 kts | 144° |
| 2026-05-07 19:35 | 53.71754 | 9.45069 | 4996 ft | 227 kts | 144° |
| 2026-05-07 19:35 | 53.70445 | 9.46563 | 4997 ft | 228 kts | 144° |
| 2026-05-07 19:36 | 53.69132 | 9.48068 | 4999 ft | 228 kts | 144° |
| 2026-05-07 19:36 | 53.67824 | 9.49559 | 4998 ft | 227 kts | 144° |
| 2026-05-07 19:36 | 53.66517 | 9.51040 | 4998 ft | 227 kts | 144° |
| 2026-05-07 19:36 | 53.65211 | 9.52527 | 4999 ft | 227 kts | 144° |
| 2026-05-07 19:37 | 53.63899 | 9.54024 | 5001 ft | 227 kts | 144° |
| 2026-05-07 19:37 | 53.62589 | 9.55515 | 5003 ft | 227 kts | 144° |
| 2026-05-07 19:37 | 53.61281 | 9.56991 | 5006 ft | 227 kts | 144° |
| 2026-05-07 19:37 | 53.59962 | 9.58469 | 5007 ft | 228 kts | 144° |
| 2026-05-07 19:38 | 53.58639 | 9.59949 | 5004 ft | 229 kts | 144° |
| 2026-05-07 19:38 | 53.57258 | 9.61278 | 5000 ft | 231 kts | 161° |
| 2026-05-07 19:38 | 53.55657 | 9.61373 | 5002 ft | 236 kts | 193° |
| 2026-05-07 19:38 | 53.54229 | 9.60027 | 5012 ft | 240 kts | 219° |
| 2026-05-07 19:39 | 53.53015 | 9.58080 | 5008 ft | 241 kts | 224° |
| 2026-05-07 19:39 | 53.51845 | 9.56073 | 5004 ft | 241 kts | 224° |
| 2026-05-07 19:39 | 53.50677 | 9.54053 | 5001 ft | 241 kts | 224° |
| 2026-05-07 19:39 | 53.49886 | 9.52684 | 5001 ft | 241 kts | 224° |
| 2026-05-07 19:40 | 53.48343 | 9.50013 | 4998 ft | 239 kts | 224° |
| 2026-05-07 19:40 | 53.47217 | 9.48062 | 4988 ft | 225 kts | 224° |
| 2026-05-07 19:40 | 53.46145 | 9.46200 | 4977 ft | 220 kts | 224° |
| 2026-05-07 19:40 | 53.45094 | 9.44384 | 4733 ft | 216 kts | 224° |
| 2026-05-07 19:41 | 53.44046 | 9.42557 | 4384 ft | 218 kts | 224° |
| 2026-05-07 19:41 | 53.42999 | 9.40726 | 4095 ft | 217 kts | 224° |
| 2026-05-07 19:41 | 53.41957 | 9.38899 | 3980 ft | 217 kts | 224° |
| 2026-05-07 19:41 | 53.40914 | 9.37072 | 3983 ft | 217 kts | 224° |
| 2026-05-07 19:42 | 53.39717 | 9.35614 | 3983 ft | 212 kts | 195° |
| 2026-05-07 19:42 | 53.38761 | 9.35390 | 3983 ft | 208 kts | 171° |
| 2026-05-07 19:42 | 53.37470 | 9.36278 | 3990 ft | 202 kts | 134° |
| 2026-05-07 19:42 | 53.36790 | 9.38259 | 3975 ft | 197 kts | 96° |
| 2026-05-07 19:43 | 53.36987 | 9.40478 | 3925 ft | 194 kts | 65° |
| 2026-05-07 19:43 | 53.37683 | 9.42441 | 3565 ft | 198 kts | 60° |
| 2026-05-07 19:43 | 53.38399 | 9.44450 | 3261 ft | 199 kts | 61° |
| 2026-05-07 19:43 | 53.39078 | 9.46430 | 3019 ft | 197 kts | 62° |
| 2026-05-07 19:44 | 53.39759 | 9.48429 | 2979 ft | 198 kts | 62° |
| 2026-05-07 19:44 | 53.40443 | 9.50440 | 2980 ft | 199 kts | 62° |
| 2026-05-07 19:44 | 53.41120 | 9.52422 | 2977 ft | 189 kts | 62° |
| 2026-05-07 19:44 | 53.41751 | 9.54268 | 2975 ft | 176 kts | 62° |
| 2026-05-07 19:45 | 53.42349 | 9.56018 | 3008 ft | 170 kts | 62° |
| 2026-05-07 19:45 | 53.42899 | 9.57757 | 2998 ft | 168 kts | 63° |
| 2026-05-07 19:45 | 53.43518 | 9.59408 | 2988 ft | 168 kts | 57° |
| 2026-05-07 19:45 | 53.44225 | 9.60978 | 3004 ft | 168 kts | 54° |
| 2026-05-07 19:46 | 53.44952 | 9.62484 | 2999 ft | 163 kts | 53° |
| 2026-05-07 19:46 | 53.45670 | 9.63935 | 3001 ft | 160 kts | 53° |
| 2026-05-07 19:46 | 53.46382 | 9.65364 | 2992 ft | 159 kts | 52° |
| 2026-05-07 19:46 | 53.47090 | 9.66780 | 3002 ft | 158 kts | 52° |
| 2026-05-07 19:47 | 53.47796 | 9.68190 | 3028 ft | 158 kts | 52° |
| 2026-05-07 19:47 | 53.48500 | 9.69598 | 3014 ft | 153 kts | 52° |
| 2026-05-07 19:47 | 53.49153 | 9.70902 | 3002 ft | 142 kts | 53° |
| 2026-05-07 19:47 | 53.49795 | 9.72188 | 3018 ft | 149 kts | 53° |
| 2026-05-07 19:48 | 53.50477 | 9.73554 | 3018 ft | 157 kts | 52° |
| 2026-05-07 19:48 | 53.51165 | 9.74929 | 3002 ft | 146 kts | 53° |
| 2026-05-07 19:48 | 53.51803 | 9.76206 | 3003 ft | 139 kts | 53° |
| 2026-05-07 19:48 | 53.52414 | 9.77431 | 2948 ft | 139 kts | 53° |
| 2026-05-07 19:49 | 53.53032 | 9.78671 | 2826 ft | 138 kts | 53° |
| 2026-05-07 19:49 | 53.53646 | 9.79903 | 2651 ft | 138 kts | 53° |
| 2026-05-07 19:49 | 53.54249 | 9.81114 | 2476 ft | 137 kts | 53° |
| 2026-05-07 19:49 | 53.54858 | 9.82337 | 2291 ft | 136 kts | 53° |
| 2026-05-07 19:50 | 53.55462 | 9.83551 | 2107 ft | 136 kts | 52° |
| 2026-05-07 19:50 | 53.56061 | 9.84755 | 1924 ft | 135 kts | 53° |
| 2026-05-07 19:50 | 53.56664 | 9.85967 | 1737 ft | 135 kts | 52° |
| 2026-05-07 19:50 | 53.57208 | 9.87060 | 1569 ft | 135 kts | 52° |
| 2026-05-07 19:51 | 53.57631 | 9.87911 | 1442 ft | 135 kts | 52° |
| 2026-05-07 19:51 | 53.58240 | 9.89138 | 1252 ft | 135 kts | 52° |
| 2026-05-07 19:51 | 53.58840 | 9.90343 | 1077 ft | 133 kts | 51° |
| 2026-05-07 19:51 | 53.59450 | 9.91506 | 957 ft | 132 kts | 50° |
| 2026-05-07 19:52 | 53.60043 | 9.92678 | 812 ft | 131 kts | 52° |
| 2026-05-07 19:52 | 53.60614 | 9.93894 | 577 ft | 133 kts | 52° |
| 2026-05-07 19:52 | 53.61201 | 9.95093 | 339 ft | 134 kts | 51° |
| 2026-05-07 19:52 | 53.61788 | 9.96293 | 141 ft | 134 kts | 50° |
| 2026-05-07 19:53 | 53.62374 | 9.97486 | 54 ft | 131 kts | 51° |
| 2026-05-07 19:53 | 53.62872 | 9.98492 | 52 ft | 86 kts | 50° |
| 2026-05-07 19:53 | 53.63124 | 9.98997 | 53 ft | 37 kts | 50° |
| 2026-05-07 19:53 | 53.63275 | 9.99313 | 54 ft | 33 kts | 55° |
| 2026-05-07 19:54 | 53.63282 | 9.99593 | 51 ft | 14 kts | 100° |
| 2026-05-07 19:54 | 53.63275 | 9.99650 | 51 ft | 0 kts | 101° |
| 2026-05-07 19:55 | 53.63274 | 9.99662 | 51 ft | 3 kts | 101° |
| 2026-05-07 19:55 | 53.63271 | 9.99684 | 51 ft | 1 kts | 101° |